sensor_id;sensor_type;location;lat;lon;timestamp;P1;durP1;ratioP1;P2;durP2;ratioP2
11313;SDS011;5712;48.858;9.206;2022-08-25T00:01:53;3.50;;;3.20;;
11313;SDS011;5712;48.858;9.206;2022-08-25T00:04:22;3.67;;;3.37;;
11313;SDS011;5712;48.858;9.206;2022-08-25T00:06:50;3.63;;;3.33;;
11313;SDS011;5712;48.858;9.206;2022-08-25T00:09:20;4.20;;;3.43;;
11313;SDS011;5712;48.858;9.206;2022-08-25T00:11:52;3.63;;;3.33;;
11313;SDS011;5712;48.858;9.206;2022-08-25T00:14:21;3.40;;;3.10;;
11313;SDS011;5712;48.858;9.206;2022-08-25T00:16:49;5.00;;;3.60;;
11313;SDS011;5712;48.858;9.206;2022-08-25T00:19:17;4.37;;;3.00;;
11313;SDS011;5712;48.858;9.206;2022-08-25T00:21:45;4.17;;;3.77;;
11313;SDS011;5712;48.858;9.206;2022-08-25T00:24:13;3.77;;;3.40;;
11313;SDS011;5712;48.858;9.206;2022-08-25T00:26:43;3.30;;;3.00;;
11313;SDS011;5712;48.858;9.206;2022-08-25T00:29:13;3.50;;;3.20;;
11313;SDS011;5712;48.858;9.206;2022-08-25T00:31:40;3.47;;;3.17;;
11313;SDS011;5712;48.858;9.206;2022-08-25T00:34:08;3.90;;;3.13;;
11313;SDS011;5712;48.858;9.206;2022-08-25T00:36:38;3.77;;;3.40;;
11313;SDS011;5712;48.858;9.206;2022-08-25T00:39:06;3.60;;;3.30;;
11313;SDS011;5712;48.858;9.206;2022-08-25T00:41:35;4.50;;;4.00;;
11313;SDS011;5712;48.858;9.206;2022-08-25T00:44:05;3.93;;;3.53;;
11313;SDS011;5712;48.858;9.206;2022-08-25T00:46:35;3.83;;;3.53;;
11313;SDS011;5712;48.858;9.206;2022-08-25T00:49:04;4.10;;;3.70;;
11313;SDS011;5712;48.858;9.206;2022-08-25T00:51:35;4.07;;;3.67;;
11313;SDS011;5712;48.858;9.206;2022-08-25T00:54:07;3.80;;;3.47;;
11313;SDS011;5712;48.858;9.206;2022-08-25T00:56:38;4.07;;;3.73;;
11313;SDS011;5712;48.858;9.206;2022-08-25T00:59:05;3.70;;;3.40;;
11313;SDS011;5712;48.858;9.206;2022-08-25T01:01:33;3.50;;;3.20;;
11313;SDS011;5712;48.858;9.206;2022-08-25T01:04:00;4.07;;;3.70;;
11313;SDS011;5712;48.858;9.206;2022-08-25T01:06:27;3.77;;;3.43;;
11313;SDS011;5712;48.858;9.206;2022-08-25T01:08:56;3.83;;;3.53;;
11313;SDS011;5712;48.858;9.206;2022-08-25T01:11:23;3.93;;;3.63;;
11313;SDS011;5712;48.858;9.206;2022-08-25T01:13:51;4.73;;;4.23;;
11313;SDS011;5712;48.858;9.206;2022-08-25T01:16:20;3.50;;;3.20;;
11313;SDS011;5712;48.858;9.206;2022-08-25T01:18:49;3.87;;;3.50;;
11313;SDS011;5712;48.858;9.206;2022-08-25T01:21:20;4.13;;;3.73;;
11313;SDS011;5712;48.858;9.206;2022-08-25T01:23:49;3.87;;;3.57;;
11313;SDS011;5712;48.858;9.206;2022-08-25T01:26:19;3.60;;;3.30;;
11313;SDS011;5712;48.858;9.206;2022-08-25T01:28:48;4.13;;;3.73;;
11313;SDS011;5712;48.858;9.206;2022-08-25T01:31:33;4.20;;;3.70;;
11313;SDS011;5712;48.858;9.206;2022-08-25T01:34:02;4.20;;;3.47;;
11313;SDS011;5712;48.858;9.206;2022-08-25T01:36:30;4.63;;;4.23;;
11313;SDS011;5712;48.858;9.206;2022-08-25T01:38:58;3.87;;;3.57;;
11313;SDS011;5712;48.858;9.206;2022-08-25T01:41:29;4.20;;;3.80;;
11313;SDS011;5712;48.858;9.206;2022-08-25T01:44:03;3.80;;;3.50;;
11313;SDS011;5712;48.858;9.206;2022-08-25T01:46:31;5.07;;;3.97;;
11313;SDS011;5712;48.858;9.206;2022-08-25T01:48:58;4.37;;;3.97;;
11313;SDS011;5712;48.858;9.206;2022-08-25T01:51:27;4.40;;;4.00;;
11313;SDS011;5712;48.858;9.206;2022-08-25T01:53:59;4.90;;;4.40;;
11313;SDS011;5712;48.858;9.206;2022-08-25T01:56:26;4.00;;;3.30;;
11313;SDS011;5712;48.858;9.206;2022-08-25T01:58:52;3.97;;;3.57;;
11313;SDS011;5712;48.858;9.206;2022-08-25T02:01:20;4.47;;;4.07;;
11313;SDS011;5712;48.858;9.206;2022-08-25T02:03:49;4.63;;;4.13;;
11313;SDS011;5712;48.858;9.206;2022-08-25T02:06:19;4.23;;;3.83;;
11313;SDS011;5712;48.858;9.206;2022-08-25T02:08:49;4.20;;;3.80;;
11313;SDS011;5712;48.858;9.206;2022-08-25T02:11:18;4.50;;;4.10;;
11313;SDS011;5712;48.858;9.206;2022-08-25T02:13:45;4.77;;;4.30;;
11313;SDS011;5712;48.858;9.206;2022-08-25T02:16:13;5.13;;;3.77;;
11313;SDS011;5712;48.858;9.206;2022-08-25T02:18:44;4.73;;;4.00;;
11313;SDS011;5712;48.858;9.206;2022-08-25T02:21:11;4.23;;;3.83;;
11313;SDS011;5712;48.858;9.206;2022-08-25T02:23:38;4.93;;;4.53;;
11313;SDS011;5712;48.858;9.206;2022-08-25T02:26:06;4.27;;;3.87;;
11313;SDS011;5712;48.858;9.206;2022-08-25T02:28:35;4.27;;;3.87;;
11313;SDS011;5712;48.858;9.206;2022-08-25T02:31:02;5.43;;;4.23;;
11313;SDS011;5712;48.858;9.206;2022-08-25T02:33:29;4.13;;;3.73;;
11313;SDS011;5712;48.858;9.206;2022-08-25T02:35:57;4.40;;;3.93;;
11313;SDS011;5712;48.858;9.206;2022-08-25T02:38:24;5.23;;;4.53;;
11313;SDS011;5712;48.858;9.206;2022-08-25T02:40:52;4.43;;;4.03;;
11313;SDS011;5712;48.858;9.206;2022-08-25T02:43:19;4.97;;;4.57;;
11313;SDS011;5712;48.858;9.206;2022-08-25T02:45:47;4.83;;;4.33;;
11313;SDS011;5712;48.858;9.206;2022-08-25T02:48:14;4.97;;;4.47;;
11313;SDS011;5712;48.858;9.206;2022-08-25T02:50:44;4.87;;;4.43;;
11313;SDS011;5712;48.858;9.206;2022-08-25T02:53:12;5.03;;;4.47;;
11313;SDS011;5712;48.858;9.206;2022-08-25T02:55:38;4.83;;;4.33;;
11313;SDS011;5712;48.858;9.206;2022-08-25T02:58:06;5.20;;;4.70;;
11313;SDS011;5712;48.858;9.206;2022-08-25T03:00:33;4.87;;;4.43;;
11313;SDS011;5712;48.858;9.206;2022-08-25T03:03:01;5.23;;;4.73;;
11313;SDS011;5712;48.858;9.206;2022-08-25T03:05:28;4.97;;;4.47;;
11313;SDS011;5712;48.858;9.206;2022-08-25T03:07:55;5.67;;;4.90;;
11313;SDS011;5712;48.858;9.206;2022-08-25T03:10:22;5.83;;;4.97;;
11313;SDS011;5712;48.858;9.206;2022-08-25T03:12:49;5.10;;;4.60;;
11313;SDS011;5712;48.858;9.206;2022-08-25T03:15:15;5.10;;;4.60;;
11313;SDS011;5712;48.858;9.206;2022-08-25T03:17:43;4.83;;;4.33;;
11313;SDS011;5712;48.858;9.206;2022-08-25T03:20:12;5.87;;;4.60;;
11313;SDS011;5712;48.858;9.206;2022-08-25T03:22:39;5.00;;;4.50;;
11313;SDS011;5712;48.858;9.206;2022-08-25T03:25:07;4.70;;;4.30;;
11313;SDS011;5712;48.858;9.206;2022-08-25T03:27:52;5.53;;;4.73;;
11313;SDS011;5712;48.858;9.206;2022-08-25T03:30:19;4.60;;;4.17;;
11313;SDS011;5712;48.858;9.206;2022-08-25T03:32:46;5.07;;;4.57;;
11313;SDS011;5712;48.858;9.206;2022-08-25T03:35:14;5.83;;;5.07;;
11313;SDS011;5712;48.858;9.206;2022-08-25T03:37:40;5.07;;;4.57;;
11313;SDS011;5712;48.858;9.206;2022-08-25T03:40:08;5.37;;;4.87;;
11313;SDS011;5712;48.858;9.206;2022-08-25T03:42:39;5.67;;;5.17;;
11313;SDS011;5712;48.858;9.206;2022-08-25T03:45:06;6.10;;;5.40;;
11313;SDS011;5712;48.858;9.206;2022-08-25T03:47:36;5.80;;;5.20;;
11313;SDS011;5712;48.858;9.206;2022-08-25T03:50:03;6.83;;;5.20;;
11313;SDS011;5712;48.858;9.206;2022-08-25T03:52:32;5.47;;;4.97;;
11313;SDS011;5712;48.858;9.206;2022-08-25T03:54:59;5.37;;;4.83;;
11313;SDS011;5712;48.858;9.206;2022-08-25T03:57:25;6.13;;;5.53;;
11313;SDS011;5712;48.858;9.206;2022-08-25T03:59:52;6.60;;;5.90;;
11313;SDS011;5712;48.858;9.206;2022-08-25T04:02:19;6.10;;;5.50;;
11313;SDS011;5712;48.858;9.206;2022-08-25T04:04:46;6.33;;;5.23;;
11313;SDS011;5712;48.858;9.206;2022-08-25T04:07:13;5.83;;;5.33;;
11313;SDS011;5712;48.858;9.206;2022-08-25T04:09:41;5.57;;;5.00;;
11313;SDS011;5712;48.858;9.206;2022-08-25T04:12:07;5.80;;;5.20;;
11313;SDS011;5712;48.858;9.206;2022-08-25T04:14:34;5.10;;;4.60;;
11313;SDS011;5712;48.858;9.206;2022-08-25T04:17:02;5.40;;;4.90;;
11313;SDS011;5712;48.858;9.206;2022-08-25T04:19:29;5.80;;;4.73;;
11313;SDS011;5712;48.858;9.206;2022-08-25T04:21:55;5.87;;;5.27;;
11313;SDS011;5712;48.858;9.206;2022-08-25T04:24:22;6.20;;;5.10;;
11313;SDS011;5712;48.858;9.206;2022-08-25T04:26:50;5.57;;;4.87;;
11313;SDS011;5712;48.858;9.206;2022-08-25T04:29:19;5.43;;;4.93;;
11313;SDS011;5712;48.858;9.206;2022-08-25T04:31:47;6.37;;;5.00;;
11313;SDS011;5712;48.858;9.206;2022-08-25T04:34:15;5.40;;;4.90;;
11313;SDS011;5712;48.858;9.206;2022-08-25T04:36:42;5.47;;;4.97;;
11313;SDS011;5712;48.858;9.206;2022-08-25T04:39:09;4.97;;;4.07;;
11313;SDS011;5712;48.858;9.206;2022-08-25T04:41:36;6.43;;;5.30;;
11313;SDS011;5712;48.858;9.206;2022-08-25T04:44:04;6.20;;;5.07;;
11313;SDS011;5712;48.858;9.206;2022-08-25T04:46:32;5.90;;;5.03;;
11313;SDS011;5712;48.858;9.206;2022-08-25T04:49:00;6.53;;;5.13;;
11313;SDS011;5712;48.858;9.206;2022-08-25T04:51:28;6.00;;;5.40;;
11313;SDS011;5712;48.858;9.206;2022-08-25T04:53:57;6.13;;;5.20;;
11313;SDS011;5712;48.858;9.206;2022-08-25T04:56:26;5.30;;;4.80;;
11313;SDS011;5712;48.858;9.206;2022-08-25T04:58:54;5.57;;;5.07;;
11313;SDS011;5712;48.858;9.206;2022-08-25T05:01:24;5.83;;;5.23;;
11313;SDS011;5712;48.858;9.206;2022-08-25T05:03:52;5.47;;;4.97;;
11313;SDS011;5712;48.858;9.206;2022-08-25T05:06:20;5.90;;;5.30;;
11313;SDS011;5712;48.858;9.206;2022-08-25T05:08:47;5.33;;;4.83;;
11313;SDS011;5712;48.858;9.206;2022-08-25T05:11:15;5.30;;;4.80;;
11313;SDS011;5712;48.858;9.206;2022-08-25T05:13:43;5.07;;;4.57;;
11313;SDS011;5712;48.858;9.206;2022-08-25T05:16:10;5.70;;;5.20;;
11313;SDS011;5712;48.858;9.206;2022-08-25T05:18:39;5.60;;;4.93;;
11313;SDS011;5712;48.858;9.206;2022-08-25T05:21:07;5.37;;;4.87;;
11313;SDS011;5712;48.858;9.206;2022-08-25T05:23:35;6.77;;;5.00;;
11313;SDS011;5712;48.858;9.206;2022-08-25T05:26:03;5.77;;;5.27;;
11313;SDS011;5712;48.858;9.206;2022-08-25T05:28:32;6.60;;;5.90;;
11313;SDS011;5712;48.858;9.206;2022-08-25T05:31:00;6.30;;;5.50;;
11313;SDS011;5712;48.858;9.206;2022-08-25T05:33:28;6.90;;;5.87;;
11313;SDS011;5712;48.858;9.206;2022-08-25T05:35:57;8.33;;;6.40;;
11313;SDS011;5712;48.858;9.206;2022-08-25T05:38:24;6.97;;;6.20;;
11313;SDS011;5712;48.858;9.206;2022-08-25T05:40:51;7.27;;;6.13;;
11313;SDS011;5712;48.858;9.206;2022-08-25T05:43:18;6.70;;;6.00;;
11313;SDS011;5712;48.858;9.206;2022-08-25T05:45:45;6.60;;;5.90;;
11313;SDS011;5712;48.858;9.206;2022-08-25T05:48:11;6.53;;;5.93;;
11313;SDS011;5712;48.858;9.206;2022-08-25T05:50:38;5.87;;;5.27;;
11313;SDS011;5712;48.858;9.206;2022-08-25T05:53:06;5.37;;;4.87;;
11313;SDS011;5712;48.858;9.206;2022-08-25T05:55:33;7.87;;;5.50;;
11313;SDS011;5712;48.858;9.206;2022-08-25T05:57:59;5.30;;;4.80;;
11313;SDS011;5712;48.858;9.206;2022-08-25T06:00:26;5.77;;;5.27;;
11313;SDS011;5712;48.858;9.206;2022-08-25T06:02:53;6.37;;;5.50;;
11313;SDS011;5712;48.858;9.206;2022-08-25T06:05:19;7.60;;;6.10;;
11313;SDS011;5712;48.858;9.206;2022-08-25T06:07:48;7.00;;;5.50;;
11313;SDS011;5712;48.858;9.206;2022-08-25T06:10:18;7.23;;;6.30;;
11313;SDS011;5712;48.858;9.206;2022-08-25T06:12:45;6.80;;;5.70;;
11313;SDS011;5712;48.858;9.206;2022-08-25T06:15:12;7.83;;;6.13;;
11313;SDS011;5712;48.858;9.206;2022-08-25T06:17:40;5.83;;;5.27;;
11313;SDS011;5712;48.858;9.206;2022-08-25T06:20:08;6.10;;;5.27;;
11313;SDS011;5712;48.858;9.206;2022-08-25T06:22:37;6.37;;;5.73;;
11313;SDS011;5712;48.858;9.206;2022-08-25T06:25:05;6.30;;;5.70;;
11313;SDS011;5712;48.858;9.206;2022-08-25T06:27:35;6.60;;;5.80;;
11313;SDS011;5712;48.858;9.206;2022-08-25T06:30:02;6.97;;;6.27;;
11313;SDS011;5712;48.858;9.206;2022-08-25T06:32:30;7.67;;;6.80;;
11313;SDS011;5712;48.858;9.206;2022-08-25T06:34:57;6.27;;;5.67;;
11313;SDS011;5712;48.858;9.206;2022-08-25T06:37:24;6.50;;;5.90;;
11313;SDS011;5712;48.858;9.206;2022-08-25T06:39:51;7.10;;;6.33;;
11313;SDS011;5712;48.858;9.206;2022-08-25T06:42:18;7.97;;;6.57;;
11313;SDS011;5712;48.858;9.206;2022-08-25T06:44:46;7.10;;;6.40;;
11313;SDS011;5712;48.858;9.206;2022-08-25T06:47:13;6.70;;;6.10;;
11313;SDS011;5712;48.858;9.206;2022-08-25T06:49:40;7.10;;;6.40;;
11313;SDS011;5712;48.858;9.206;2022-08-25T06:52:07;6.20;;;5.60;;
11313;SDS011;5712;48.858;9.206;2022-08-25T06:54:34;8.43;;;6.50;;
11313;SDS011;5712;48.858;9.206;2022-08-25T06:57:00;7.67;;;6.17;;
11313;SDS011;5712;48.858;9.206;2022-08-25T06:59:27;7.73;;;6.73;;
11313;SDS011;5712;48.858;9.206;2022-08-25T07:01:55;7.00;;;6.27;;
11313;SDS011;5712;48.858;9.206;2022-08-25T07:04:22;8.03;;;6.47;;
11313;SDS011;5712;48.858;9.206;2022-08-25T07:06:48;8.20;;;6.73;;
11313;SDS011;5712;48.858;9.206;2022-08-25T07:09:15;6.97;;;6.27;;
11313;SDS011;5712;48.858;9.206;2022-08-25T07:11:42;7.40;;;6.70;;
11313;SDS011;5712;48.858;9.206;2022-08-25T07:14:10;7.83;;;6.63;;
11313;SDS011;5712;48.858;9.206;2022-08-25T07:16:38;7.73;;;6.93;;
11313;SDS011;5712;48.858;9.206;2022-08-25T07:19:08;6.90;;;6.20;;
11313;SDS011;5712;48.858;9.206;2022-08-25T07:21:36;6.97;;;6.27;;
11313;SDS011;5712;48.858;9.206;2022-08-25T07:24:06;7.23;;;6.40;;
11313;SDS011;5712;48.858;9.206;2022-08-25T07:26:34;6.80;;;6.10;;
11313;SDS011;5712;48.858;9.206;2022-08-25T07:29:02;6.77;;;6.07;;
11313;SDS011;5712;48.858;9.206;2022-08-25T07:31:30;6.10;;;5.50;;
11313;SDS011;5712;48.858;9.206;2022-08-25T07:33:57;6.00;;;5.40;;
11313;SDS011;5712;48.858;9.206;2022-08-25T07:36:42;6.20;;;5.60;;
11313;SDS011;5712;48.858;9.206;2022-08-25T07:39:09;6.80;;;5.70;;
11313;SDS011;5712;48.858;9.206;2022-08-25T07:41:36;5.87;;;5.20;;
11313;SDS011;5712;48.858;9.206;2022-08-25T07:44:05;6.57;;;5.60;;
11313;SDS011;5712;48.858;9.206;2022-08-25T07:46:32;6.13;;;5.53;;
11313;SDS011;5712;48.858;9.206;2022-08-25T07:48:59;6.43;;;5.83;;
11313;SDS011;5712;48.858;9.206;2022-08-25T07:51:26;6.30;;;5.23;;
11313;SDS011;5712;48.858;9.206;2022-08-25T07:53:54;5.90;;;5.30;;
11313;SDS011;5712;48.858;9.206;2022-08-25T07:56:20;6.13;;;5.53;;
11313;SDS011;5712;48.858;9.206;2022-08-25T07:58:47;6.40;;;5.20;;
11313;SDS011;5712;48.858;9.206;2022-08-25T08:01:15;6.20;;;5.43;;
11313;SDS011;5712;48.858;9.206;2022-08-25T08:03:42;6.03;;;5.43;;
11313;SDS011;5712;48.858;9.206;2022-08-25T08:06:10;6.50;;;5.47;;
11313;SDS011;5712;48.858;9.206;2022-08-25T08:08:39;6.80;;;5.20;;
11313;SDS011;5712;48.858;9.206;2022-08-25T08:11:14;5.63;;;5.13;;
11313;SDS011;5712;48.858;9.206;2022-08-25T08:13:42;5.70;;;5.13;;
11313;SDS011;5712;48.858;9.206;2022-08-25T08:16:09;5.97;;;5.20;;
11313;SDS011;5712;48.858;9.206;2022-08-25T08:18:37;5.67;;;5.07;;
11313;SDS011;5712;48.858;9.206;2022-08-25T08:21:04;6.23;;;5.63;;
11313;SDS011;5712;48.858;9.206;2022-08-25T08:23:36;5.93;;;5.43;;
11313;SDS011;5712;48.858;9.206;2022-08-25T08:26:03;6.17;;;5.30;;
11313;SDS011;5712;48.858;9.206;2022-08-25T08:28:31;6.10;;;5.50;;
11313;SDS011;5712;48.858;9.206;2022-08-25T08:30:58;5.87;;;5.00;;
11313;SDS011;5712;48.858;9.206;2022-08-25T08:33:24;5.93;;;5.35;;
11313;SDS011;5712;48.858;9.206;2022-08-25T08:35:55;6.27;;;5.20;;
11313;SDS011;5712;48.858;9.206;2022-08-25T08:38:22;5.40;;;4.90;;
11313;SDS011;5712;48.858;9.206;2022-08-25T08:40:52;5.70;;;5.10;;
11313;SDS011;5712;48.858;9.206;2022-08-25T08:43:46;5.50;;;4.88;;
11313;SDS011;5712;48.858;9.206;2022-08-25T08:46:18;5.30;;;4.80;;
11313;SDS011;5712;48.858;9.206;2022-08-25T08:48:54;5.43;;;4.93;;
11313;SDS011;5712;48.858;9.206;2022-08-25T08:51:28;5.00;;;4.50;;
11313;SDS011;5712;48.858;9.206;2022-08-25T08:53:58;5.32;;;4.82;;
11313;SDS011;5712;48.858;9.206;2022-08-25T08:56:33;4.83;;;4.43;;
11313;SDS011;5712;48.858;9.206;2022-08-25T08:59:08;6.53;;;4.93;;
11313;SDS011;5712;48.858;9.206;2022-08-25T09:01:43;5.10;;;4.60;;
11313;SDS011;5712;48.858;9.206;2022-08-25T09:04:13;5.38;;;4.78;;
11313;SDS011;5712;48.858;9.206;2022-08-25T09:06:48;5.22;;;4.72;;
11313;SDS011;5712;48.858;9.206;2022-08-25T09:12:00;5.55;;;5.05;;
11313;SDS011;5712;48.858;9.206;2022-08-25T09:14:48;5.55;;;4.90;;
11313;SDS011;5712;48.858;9.206;2022-08-25T09:17:26;5.25;;;4.82;;
11313;SDS011;5712;48.858;9.206;2022-08-25T09:20:07;5.45;;;4.82;;
11313;SDS011;5712;48.858;9.206;2022-08-25T09:22:51;4.95;;;4.55;;
11313;SDS011;5712;48.858;9.206;2022-08-25T09:25:27;4.95;;;4.55;;
11313;SDS011;5712;48.858;9.206;2022-08-25T09:28:05;5.20;;;4.75;;
11313;SDS011;5712;48.858;9.206;2022-08-25T09:30:40;5.18;;;4.68;;
11313;SDS011;5712;48.858;9.206;2022-08-25T09:33:12;5.18;;;4.68;;
11313;SDS011;5712;48.858;9.206;2022-08-25T09:35:44;5.40;;;4.82;;
11313;SDS011;5712;48.858;9.206;2022-08-25T09:38:12;5.65;;;4.28;;
11313;SDS011;5712;48.858;9.206;2022-08-25T09:40:40;5.15;;;4.65;;
11313;SDS011;5712;48.858;9.206;2022-08-25T09:43:17;5.28;;;4.78;;
11313;SDS011;5712;48.858;9.206;2022-08-25T09:45:47;5.05;;;4.65;;
11313;SDS011;5712;48.858;9.206;2022-08-25T09:48:22;5.43;;;4.93;;
11313;SDS011;5712;48.858;9.206;2022-08-25T09:50:50;5.20;;;4.30;;
11313;SDS011;5712;48.858;9.206;2022-08-25T09:53:22;5.15;;;4.65;;
11313;SDS011;5712;48.858;9.206;2022-08-25T09:55:52;5.95;;;4.97;;
11313;SDS011;5712;48.858;9.206;2022-08-25T09:58:22;5.35;;;4.85;;
11313;SDS011;5712;48.858;9.206;2022-08-25T10:01:02;5.10;;;4.60;;
11313;SDS011;5712;48.858;9.206;2022-08-25T10:03:56;5.22;;;4.72;;
11313;SDS011;5712;48.858;9.206;2022-08-25T10:06:26;5.53;;;5.03;;
11313;SDS011;5712;48.858;9.206;2022-08-25T10:09:00;5.10;;;4.53;;
11313;SDS011;5712;48.858;9.206;2022-08-25T10:11:33;5.28;;;4.78;;
11313;SDS011;5712;48.858;9.206;2022-08-25T10:14:04;5.65;;;4.70;;
11313;SDS011;5712;48.858;9.206;2022-08-25T10:16:42;4.90;;;4.50;;
11313;SDS011;5712;48.858;9.206;2022-08-25T10:19:10;5.18;;;4.68;;
11313;SDS011;5712;48.858;9.206;2022-08-25T10:21:39;4.95;;;4.55;;
11313;SDS011;5712;48.858;9.206;2022-08-25T10:24:08;4.78;;;4.28;;
11313;SDS011;5712;48.858;9.206;2022-08-25T10:26:40;4.88;;;4.40;;
11313;SDS011;5712;48.858;9.206;2022-08-25T10:29:22;5.30;;;4.80;;
11313;SDS011;5712;48.858;9.206;2022-08-25T10:32:04;4.88;;;4.38;;
11313;SDS011;5712;48.858;9.206;2022-08-25T10:34:42;5.22;;;4.43;;
11313;SDS011;5712;48.858;9.206;2022-08-25T10:37:15;4.82;;;4.32;;
11313;SDS011;5712;48.858;9.206;2022-08-25T10:39:54;4.80;;;4.32;;
11313;SDS011;5712;48.858;9.206;2022-08-25T10:42:29;5.15;;;4.47;;
11313;SDS011;5712;48.858;9.206;2022-08-25T10:45:05;4.65;;;4.25;;
11313;SDS011;5712;48.858;9.206;2022-08-25T10:48:11;4.85;;;4.10;;
11313;SDS011;5712;48.858;9.206;2022-08-25T10:50:55;4.43;;;4.03;;
11313;SDS011;5712;48.858;9.206;2022-08-25T10:53:28;4.75;;;4.22;;
11313;SDS011;5712;48.858;9.206;2022-08-25T10:56:10;4.30;;;3.83;;
11313;SDS011;5712;48.858;9.206;2022-08-25T11:01:43;4.25;;;3.85;;
11313;SDS011;5712;48.858;9.206;2022-08-25T11:04:23;4.32;;;3.78;;
11313;SDS011;5712;48.858;9.206;2022-08-25T11:06:54;5.10;;;3.85;;
11313;SDS011;5712;48.858;9.206;2022-08-25T11:09:24;4.13;;;3.72;;
11313;SDS011;5712;48.858;9.206;2022-08-25T11:11:55;4.50;;;4.07;;
11313;SDS011;5712;48.858;9.206;2022-08-25T11:14:27;4.35;;;4.05;;
11313;SDS011;5712;48.858;9.206;2022-08-25T11:17:00;4.68;;;4.20;;
11313;SDS011;5712;48.858;9.206;2022-08-25T11:19:34;4.13;;;3.83;;
11313;SDS011;5712;48.858;9.206;2022-08-25T11:22:03;4.80;;;4.40;;
11313;SDS011;5712;48.858;9.206;2022-08-25T11:24:40;4.40;;;4.00;;
11313;SDS011;5712;48.858;9.206;2022-08-25T11:27:14;4.55;;;4.18;;
11313;SDS011;5712;48.858;9.206;2022-08-25T11:29:48;4.45;;;4.05;;
11313;SDS011;5712;48.858;9.206;2022-08-25T11:32:24;4.93;;;3.55;;
11313;SDS011;5712;48.858;9.206;2022-08-25T11:34:53;4.00;;;3.70;;
11313;SDS011;5712;48.858;9.206;2022-08-25T11:37:20;3.88;;;3.55;;
11313;SDS011;5712;48.858;9.206;2022-08-25T11:40:01;3.65;;;3.35;;
11313;SDS011;5712;48.858;9.206;2022-08-25T11:42:39;4.20;;;3.55;;
11313;SDS011;5712;48.858;9.206;2022-08-25T11:45:22;3.85;;;3.20;;
11313;SDS011;5712;48.858;9.206;2022-08-25T11:48:15;3.92;;;3.50;;
11313;SDS011;5712;48.858;9.206;2022-08-25T11:50:56;4.18;;;3.35;;
11313;SDS011;5712;48.858;9.206;2022-08-25T11:53:27;3.88;;;3.40;;
11313;SDS011;5712;48.858;9.206;2022-08-25T11:55:57;4.07;;;3.53;;
11313;SDS011;5712;48.858;9.206;2022-08-25T11:58:38;4.07;;;3.78;;
11313;SDS011;5712;48.858;9.206;2022-08-25T12:01:10;3.80;;;3.50;;
11313;SDS011;5712;48.858;9.206;2022-08-25T12:04:11;3.65;;;3.35;;
11313;SDS011;5712;48.858;9.206;2022-08-25T12:12:57;3.70;;;3.40;;
11313;SDS011;5712;48.858;9.206;2022-08-25T12:15:55;4.05;;;3.58;;
11313;SDS011;5712;48.858;9.206;2022-08-25T12:21:14;4.32;;;3.30;;
11313;SDS011;5712;48.858;9.206;2022-08-25T12:24:12;3.80;;;3.50;;
11313;SDS011;5712;48.858;9.206;2022-08-25T12:26:42;3.90;;;3.60;;
11313;SDS011;5712;48.858;9.206;2022-08-25T12:29:18;3.60;;;3.30;;
11313;SDS011;5712;48.858;9.206;2022-08-25T12:34:53;3.45;;;3.15;;
11313;SDS011;5712;48.858;9.206;2022-08-25T12:37:53;3.50;;;3.20;;
11313;SDS011;5712;48.858;9.206;2022-08-25T12:40:24;3.83;;;3.40;;
11313;SDS011;5712;48.858;9.206;2022-08-25T12:42:59;4.00;;;3.60;;
11313;SDS011;5712;48.858;9.206;2022-08-25T12:45:37;3.90;;;3.45;;
11313;SDS011;5712;48.858;9.206;2022-08-25T12:51:20;3.58;;;3.28;;
11313;SDS011;5712;48.858;9.206;2022-08-25T12:53:48;3.60;;;3.30;;
11313;SDS011;5712;48.858;9.206;2022-08-25T12:56:27;3.50;;;3.20;;
11313;SDS011;5712;48.858;9.206;2022-08-25T12:59:04;3.97;;;3.67;;
11313;SDS011;5712;48.858;9.206;2022-08-25T13:01:41;3.60;;;3.30;;
11313;SDS011;5712;48.858;9.206;2022-08-25T13:07:29;3.70;;;3.30;;
11313;SDS011;5712;48.858;9.206;2022-08-25T13:10:16;3.33;;;3.03;;
11313;SDS011;5712;48.858;9.206;2022-08-25T13:12:49;3.50;;;3.30;;
11313;SDS011;5712;48.858;9.206;2022-08-25T13:18:15;3.25;;;2.95;;
11313;SDS011;5712;48.858;9.206;2022-08-25T13:20:45;3.78;;;2.97;;
11313;SDS011;5712;48.858;9.206;2022-08-25T13:23:15;3.42;;;3.13;;
11313;SDS011;5712;48.858;9.206;2022-08-25T13:25:48;2.95;;;2.75;;
11313;SDS011;5712;48.858;9.206;2022-08-25T13:28:19;3.40;;;3.10;;
11313;SDS011;5712;48.858;9.206;2022-08-25T13:30:54;3.20;;;3.00;;
11313;SDS011;5712;48.858;9.206;2022-08-25T13:33:27;3.13;;;2.67;;
11313;SDS011;5712;48.858;9.206;2022-08-25T13:35:55;3.28;;;3.05;;
11313;SDS011;5712;48.858;9.206;2022-08-25T13:38:41;3.70;;;3.40;;
11313;SDS011;5712;48.858;9.206;2022-08-25T13:41:09;3.60;;;2.80;;
11313;SDS011;5712;48.858;9.206;2022-08-25T13:43:36;2.90;;;2.70;;
11313;SDS011;5712;48.858;9.206;2022-08-25T13:46:04;3.67;;;3.38;;
11313;SDS011;5712;48.858;9.206;2022-08-25T13:48:34;3.25;;;3.05;;
11313;SDS011;5712;48.858;9.206;2022-08-25T13:51:06;3.20;;;2.90;;
11313;SDS011;5712;48.858;9.206;2022-08-25T13:53:47;2.95;;;2.75;;
11313;SDS011;5712;48.858;9.206;2022-08-25T13:56:21;2.90;;;2.70;;
11313;SDS011;5712;48.858;9.206;2022-08-25T13:58:52;2.90;;;2.70;;
11313;SDS011;5712;48.858;9.206;2022-08-25T14:01:20;4.20;;;3.20;;
11313;SDS011;5712;48.858;9.206;2022-08-25T14:03:52;3.53;;;2.95;;
11313;SDS011;5712;48.858;9.206;2022-08-25T14:06:21;3.38;;;3.10;;
11313;SDS011;5712;48.858;9.206;2022-08-25T14:09:03;3.20;;;2.90;;
11313;SDS011;5712;48.858;9.206;2022-08-25T14:11:42;4.85;;;2.80;;
11313;SDS011;5712;48.858;9.206;2022-08-25T14:14:11;3.20;;;2.90;;
11313;SDS011;5712;48.858;9.206;2022-08-25T14:16:57;3.45;;;2.95;;
11313;SDS011;5712;48.858;9.206;2022-08-25T14:19:27;2.95;;;2.75;;
11313;SDS011;5712;48.858;9.206;2022-08-25T14:21:54;2.67;;;2.47;;
11313;SDS011;5712;48.858;9.206;2022-08-25T14:24:23;2.40;;;2.17;;
11313;SDS011;5712;48.858;9.206;2022-08-25T14:26:51;3.20;;;2.90;;
11313;SDS011;5712;48.858;9.206;2022-08-25T14:29:18;3.78;;;2.95;;
11313;SDS011;5712;48.858;9.206;2022-08-25T14:31:45;3.45;;;2.90;;
11313;SDS011;5712;48.858;9.206;2022-08-25T14:34:13;4.57;;;3.10;;
11313;SDS011;5712;48.858;9.206;2022-08-25T14:36:44;3.15;;;2.85;;
11313;SDS011;5712;48.858;9.206;2022-08-25T14:39:12;3.03;;;2.83;;
11313;SDS011;5712;48.858;9.206;2022-08-25T14:41:40;3.03;;;2.80;;
11313;SDS011;5712;48.858;9.206;2022-08-25T14:44:08;3.63;;;2.72;;
11313;SDS011;5712;48.858;9.206;2022-08-25T14:46:36;3.13;;;2.83;;
11313;SDS011;5712;48.858;9.206;2022-08-25T14:49:07;3.58;;;2.80;;
11313;SDS011;5712;48.858;9.206;2022-08-25T14:51:37;3.00;;;2.80;;
11313;SDS011;5712;48.858;9.206;2022-08-25T14:54:09;4.00;;;2.80;;
11313;SDS011;5712;48.858;9.206;2022-08-25T14:56:39;2.72;;;2.53;;
11313;SDS011;5712;48.858;9.206;2022-08-25T14:59:06;3.28;;;2.92;;
11313;SDS011;5712;48.858;9.206;2022-08-25T15:01:33;2.95;;;2.75;;
11313;SDS011;5712;48.858;9.206;2022-08-25T15:04:01;3.20;;;2.90;;
11313;SDS011;5712;48.858;9.206;2022-08-25T15:06:31;3.83;;;3.20;;
11313;SDS011;5712;48.858;9.206;2022-08-25T15:08:59;3.05;;;2.85;;
11313;SDS011;5712;48.858;9.206;2022-08-25T15:11:37;3.53;;;2.85;;
11313;SDS011;5712;48.858;9.206;2022-08-25T15:14:05;3.22;;;3.03;;
11313;SDS011;5712;48.858;9.206;2022-08-25T15:16:34;2.97;;;2.70;;
11313;SDS011;5712;48.858;9.206;2022-08-25T15:19:03;3.55;;;3.25;;
11313;SDS011;5712;48.858;9.206;2022-08-25T15:21:31;3.10;;;2.90;;
11313;SDS011;5712;48.858;9.206;2022-08-25T15:23:58;3.00;;;2.80;;
11313;SDS011;5712;48.858;9.206;2022-08-25T15:26:25;3.25;;;2.95;;
11313;SDS011;5712;48.858;9.206;2022-08-25T15:28:54;3.85;;;2.83;;
11313;SDS011;5712;48.858;9.206;2022-08-25T15:31:20;3.67;;;2.83;;
11313;SDS011;5712;48.858;9.206;2022-08-25T15:33:48;3.15;;;2.85;;
11313;SDS011;5712;48.858;9.206;2022-08-25T15:36:16;2.78;;;2.55;;
11313;SDS011;5712;48.858;9.206;2022-08-25T15:38:48;2.95;;;2.70;;
11313;SDS011;5712;48.858;9.206;2022-08-25T15:41:14;2.97;;;2.78;;
11313;SDS011;5712;48.858;9.206;2022-08-25T15:43:41;5.35;;;2.83;;
11313;SDS011;5712;48.858;9.206;2022-08-25T15:46:10;3.53;;;2.78;;
11313;SDS011;5712;48.858;9.206;2022-08-25T15:48:41;3.28;;;2.97;;